sensor_id;sensor_type;location;lat;lon;timestamp;P1;durP1;ratioP1;P2;durP2;ratioP2
62687;SDS011;48752;51.056;17.056;2023-04-24T00:01:23;25.17;;;16.52;;
62687;SDS011;48752;51.056;17.056;2023-04-24T00:03:50;26.27;;;16.40;;
62687;SDS011;48752;51.056;17.056;2023-04-24T00:06:17;23.77;;;16.33;;
62687;SDS011;48752;51.056;17.056;2023-04-24T00:08:43;25.75;;;17.23;;
62687;SDS011;48752;51.056;17.056;2023-04-24T00:11:10;25.55;;;17.42;;
62687;SDS011;48752;51.056;17.056;2023-04-24T00:13:35;22.20;;;16.55;;
62687;SDS011;48752;51.056;17.056;2023-04-24T00:16:01;24.90;;;15.43;;
62687;SDS011;48752;51.056;17.056;2023-04-24T00:18:28;26.67;;;17.05;;
62687;SDS011;48752;51.056;17.056;2023-04-24T00:20:54;24.92;;;17.27;;
62687;SDS011;48752;51.056;17.056;2023-04-24T00:23:21;26.55;;;17.38;;
62687;SDS011;48752;51.056;17.056;2023-04-24T00:25:47;26.17;;;16.65;;
62687;SDS011;48752;51.056;17.056;2023-04-24T00:28:13;28.08;;;17.73;;
62687;SDS011;48752;51.056;17.056;2023-04-24T00:30:40;29.55;;;18.50;;
62687;SDS011;48752;51.056;17.056;2023-04-24T00:33:06;24.90;;;17.15;;
62687;SDS011;48752;51.056;17.056;2023-04-24T00:35:33;27.55;;;17.58;;
62687;SDS011;48752;51.056;17.056;2023-04-24T00:37:58;27.05;;;18.27;;
62687;SDS011;48752;51.056;17.056;2023-04-24T00:40:24;25.80;;;17.48;;
62687;SDS011;48752;51.056;17.056;2023-04-24T00:42:51;30.95;;;18.60;;
62687;SDS011;48752;51.056;17.056;2023-04-24T00:45:17;28.55;;;16.95;;
62687;SDS011;48752;51.056;17.056;2023-04-24T00:47:43;25.80;;;18.75;;
62687;SDS011;48752;51.056;17.056;2023-04-24T00:50:12;30.80;;;16.73;;
62687;SDS011;48752;51.056;17.056;2023-04-24T00:52:40;28.58;;;17.52;;
62687;SDS011;48752;51.056;17.056;2023-04-24T00:55:07;26.63;;;18.98;;
62687;SDS011;48752;51.056;17.056;2023-04-24T00:57:34;28.60;;;18.05;;
62687;SDS011;48752;51.056;17.056;2023-04-24T01:00:01;29.23;;;18.42;;
62687;SDS011;48752;51.056;17.056;2023-04-24T01:02:29;28.90;;;17.83;;
62687;SDS011;48752;51.056;17.056;2023-04-24T01:04:56;31.67;;;19.52;;
62687;SDS011;48752;51.056;17.056;2023-04-24T01:07:22;29.15;;;17.52;;
62687;SDS011;48752;51.056;17.056;2023-04-24T01:09:49;27.98;;;19.40;;
62687;SDS011;48752;51.056;17.056;2023-04-24T01:12:17;35.83;;;20.05;;
62687;SDS011;48752;51.056;17.056;2023-04-24T01:14:47;32.75;;;19.65;;
62687;SDS011;48752;51.056;17.056;2023-04-24T01:17:13;29.48;;;18.88;;
62687;SDS011;48752;51.056;17.056;2023-04-24T01:19:39;30.30;;;18.92;;
62687;SDS011;48752;51.056;17.056;2023-04-24T01:22:09;26.70;;;17.02;;
62687;SDS011;48752;51.056;17.056;2023-04-24T01:24:36;26.98;;;18.05;;
62687;SDS011;48752;51.056;17.056;2023-04-24T01:27:02;25.35;;;16.90;;
62687;SDS011;48752;51.056;17.056;2023-04-24T01:29:28;26.48;;;15.43;;
62687;SDS011;48752;51.056;17.056;2023-04-24T01:31:53;22.27;;;15.82;;
62687;SDS011;48752;51.056;17.056;2023-04-24T01:34:20;24.90;;;14.85;;
62687;SDS011;48752;51.056;17.056;2023-04-24T01:36:45;24.20;;;15.75;;
62687;SDS011;48752;51.056;17.056;2023-04-24T01:39:12;19.30;;;14.73;;
62687;SDS011;48752;51.056;17.056;2023-04-24T01:41:37;26.02;;;16.02;;
62687;SDS011;48752;51.056;17.056;2023-04-24T01:44:03;26.42;;;15.35;;
62687;SDS011;48752;51.056;17.056;2023-04-24T01:46:28;23.20;;;14.32;;
62687;SDS011;48752;51.056;17.056;2023-04-24T01:48:55;19.00;;;14.80;;
62687;SDS011;48752;51.056;17.056;2023-04-24T01:51:21;24.60;;;14.98;;
62687;SDS011;48752;51.056;17.056;2023-04-24T01:53:46;21.40;;;15.07;;
62687;SDS011;48752;51.056;17.056;2023-04-24T01:56:12;23.05;;;14.55;;
62687;SDS011;48752;51.056;17.056;2023-04-24T01:58:37;23.35;;;14.25;;
62687;SDS011;48752;51.056;17.056;2023-04-24T02:01:02;21.42;;;14.02;;
62687;SDS011;48752;51.056;17.056;2023-04-24T02:03:28;23.13;;;14.25;;
62687;SDS011;48752;51.056;17.056;2023-04-24T02:05:54;22.35;;;15.30;;
62687;SDS011;48752;51.056;17.056;2023-04-24T02:08:19;22.25;;;14.15;;
62687;SDS011;48752;51.056;17.056;2023-04-24T02:10:44;21.00;;;14.07;;
62687;SDS011;48752;51.056;17.056;2023-04-24T02:13:10;20.65;;;15.02;;
62687;SDS011;48752;51.056;17.056;2023-04-24T02:15:35;18.80;;;14.35;;
62687;SDS011;48752;51.056;17.056;2023-04-24T02:18:01;25.98;;;14.38;;
62687;SDS011;48752;51.056;17.056;2023-04-24T02:20:26;19.63;;;13.50;;
62687;SDS011;48752;51.056;17.056;2023-04-24T02:22:52;17.33;;;13.05;;
62687;SDS011;48752;51.056;17.056;2023-04-24T02:25:17;22.17;;;13.80;;
62687;SDS011;48752;51.056;17.056;2023-04-24T02:27:43;19.90;;;14.07;;
62687;SDS011;48752;51.056;17.056;2023-04-24T02:30:09;22.52;;;14.38;;
62687;SDS011;48752;51.056;17.056;2023-04-24T02:32:35;16.20;;;12.80;;
62687;SDS011;48752;51.056;17.056;2023-04-24T02:35:00;21.50;;;14.15;;
62687;SDS011;48752;51.056;17.056;2023-04-24T02:37:26;19.95;;;13.82;;
62687;SDS011;48752;51.056;17.056;2023-04-24T02:39:51;20.20;;;14.23;;
62687;SDS011;48752;51.056;17.056;2023-04-24T02:42:17;20.75;;;13.60;;
62687;SDS011;48752;51.056;17.056;2023-04-24T02:44:42;19.17;;;13.07;;
62687;SDS011;48752;51.056;17.056;2023-04-24T02:47:07;20.10;;;13.88;;
62687;SDS011;48752;51.056;17.056;2023-04-24T02:49:33;19.13;;;14.25;;
62687;SDS011;48752;51.056;17.056;2023-04-24T02:51:59;24.83;;;13.73;;
62687;SDS011;48752;51.056;17.056;2023-04-24T02:54:24;21.83;;;14.10;;
62687;SDS011;48752;51.056;17.056;2023-04-24T02:56:50;21.20;;;14.23;;
62687;SDS011;48752;51.056;17.056;2023-04-24T02:59:15;19.20;;;13.73;;
62687;SDS011;48752;51.056;17.056;2023-04-24T03:01:40;22.27;;;14.05;;
62687;SDS011;48752;51.056;17.056;2023-04-24T03:04:06;23.08;;;14.57;;
62687;SDS011;48752;51.056;17.056;2023-04-24T03:06:31;17.92;;;13.88;;
62687;SDS011;48752;51.056;17.056;2023-04-24T03:08:57;25.50;;;15.90;;
62687;SDS011;48752;51.056;17.056;2023-04-24T03:11:23;20.63;;;14.23;;
62687;SDS011;48752;51.056;17.056;2023-04-24T03:13:48;21.65;;;15.38;;
62687;SDS011;48752;51.056;17.056;2023-04-24T03:16:14;23.08;;;16.02;;
62687;SDS011;48752;51.056;17.056;2023-04-24T03:18:39;22.85;;;14.75;;
62687;SDS011;48752;51.056;17.056;2023-04-24T03:21:05;22.17;;;14.90;;
62687;SDS011;48752;51.056;17.056;2023-04-24T03:23:30;22.27;;;15.82;;
62687;SDS011;48752;51.056;17.056;2023-04-24T03:25:56;21.83;;;15.43;;
62687;SDS011;48752;51.056;17.056;2023-04-24T03:28:21;24.98;;;17.00;;
62687;SDS011;48752;51.056;17.056;2023-04-24T03:30:46;22.40;;;16.05;;
62687;SDS011;48752;51.056;17.056;2023-04-24T03:33:12;24.17;;;16.73;;
62687;SDS011;48752;51.056;17.056;2023-04-24T03:35:37;23.45;;;16.10;;
62687;SDS011;48752;51.056;17.056;2023-04-24T03:38:03;24.05;;;16.80;;
62687;SDS011;48752;51.056;17.056;2023-04-24T03:40:31;27.73;;;16.48;;
62687;SDS011;48752;51.056;17.056;2023-04-24T03:42:58;31.40;;;18.35;;
62687;SDS011;48752;51.056;17.056;2023-04-24T03:45:24;25.35;;;17.42;;
62687;SDS011;48752;51.056;17.056;2023-04-24T03:47:49;23.80;;;16.77;;
62687;SDS011;48752;51.056;17.056;2023-04-24T03:50:15;23.23;;;15.98;;
62687;SDS011;48752;51.056;17.056;2023-04-24T03:52:40;27.27;;;16.27;;
62687;SDS011;48752;51.056;17.056;2023-04-24T03:55:06;23.95;;;15.95;;
62687;SDS011;48752;51.056;17.056;2023-04-24T03:57:31;26.73;;;17.35;;
62687;SDS011;48752;51.056;17.056;2023-04-24T03:59:57;22.10;;;16.02;;
62687;SDS011;48752;51.056;17.056;2023-04-24T04:02:22;23.90;;;16.42;;
62687;SDS011;48752;51.056;17.056;2023-04-24T04:04:48;26.45;;;17.00;;
62687;SDS011;48752;51.056;17.056;2023-04-24T04:07:13;25.58;;;15.25;;
62687;SDS011;48752;51.056;17.056;2023-04-24T04:09:38;21.05;;;15.40;;
62687;SDS011;48752;51.056;17.056;2023-04-24T04:12:04;26.00;;;15.55;;
62687;SDS011;48752;51.056;17.056;2023-04-24T04:14:29;21.98;;;16.05;;
62687;SDS011;48752;51.056;17.056;2023-04-24T04:16:55;23.33;;;15.75;;
62687;SDS011;48752;51.056;17.056;2023-04-24T04:19:20;23.88;;;16.17;;
62687;SDS011;48752;51.056;17.056;2023-04-24T04:21:45;24.25;;;15.35;;
62687;SDS011;48752;51.056;17.056;2023-04-24T04:24:16;20.95;;;15.13;;
62687;SDS011;48752;51.056;17.056;2023-04-24T04:26:43;23.52;;;15.73;;
62687;SDS011;48752;51.056;17.056;2023-04-24T04:29:13;23.38;;;14.68;;
62687;SDS011;48752;51.056;17.056;2023-04-24T04:31:40;18.98;;;14.60;;
62687;SDS011;48752;51.056;17.056;2023-04-24T04:34:05;21.17;;;15.48;;
62687;SDS011;48752;51.056;17.056;2023-04-24T04:36:31;20.98;;;13.32;;
62687;SDS011;48752;51.056;17.056;2023-04-24T04:41:29;23.17;;;15.00;;
62687;SDS011;48752;51.056;17.056;2023-04-24T04:43:56;21.08;;;14.80;;
62687;SDS011;48752;51.056;17.056;2023-04-24T04:46:24;22.05;;;15.48;;
62687;SDS011;48752;51.056;17.056;2023-04-24T04:48:52;19.55;;;14.13;;
62687;SDS011;48752;51.056;17.056;2023-04-24T04:51:20;22.90;;;14.50;;
62687;SDS011;48752;51.056;17.056;2023-04-24T04:53:45;21.10;;;14.10;;
62687;SDS011;48752;51.056;17.056;2023-04-24T04:56:11;18.05;;;13.65;;
62687;SDS011;48752;51.056;17.056;2023-04-24T04:58:37;17.17;;;13.07;;
62687;SDS011;48752;51.056;17.056;2023-04-24T05:01:03;19.77;;;13.45;;
62687;SDS011;48752;51.056;17.056;2023-04-24T05:03:29;18.13;;;13.23;;
62687;SDS011;48752;51.056;17.056;2023-04-24T05:05:55;18.75;;;12.90;;
62687;SDS011;48752;51.056;17.056;2023-04-24T05:08:20;18.35;;;12.38;;
62687;SDS011;48752;51.056;17.056;2023-04-24T05:10:47;20.88;;;11.57;;
62687;SDS011;48752;51.056;17.056;2023-04-24T05:13:13;14.15;;;10.45;;
62687;SDS011;48752;51.056;17.056;2023-04-24T05:15:39;16.85;;;11.65;;
62687;SDS011;48752;51.056;17.056;2023-04-24T05:18:04;16.63;;;11.18;;
62687;SDS011;48752;51.056;17.056;2023-04-24T05:20:30;18.90;;;11.05;;
62687;SDS011;48752;51.056;17.056;2023-04-24T05:22:55;16.70;;;10.40;;
62687;SDS011;48752;51.056;17.056;2023-04-24T05:25:21;13.15;;;9.45;;
62687;SDS011;48752;51.056;17.056;2023-04-24T05:27:46;12.63;;;9.07;;
62687;SDS011;48752;51.056;17.056;2023-04-24T05:30:12;11.77;;;8.88;;
62687;SDS011;48752;51.056;17.056;2023-04-24T05:32:37;12.30;;;8.43;;
62687;SDS011;48752;51.056;17.056;2023-04-24T05:35:03;12.23;;;8.13;;
62687;SDS011;48752;51.056;17.056;2023-04-24T05:37:29;10.68;;;8.07;;
62687;SDS011;48752;51.056;17.056;2023-04-24T05:39:54;13.98;;;7.97;;
62687;SDS011;48752;51.056;17.056;2023-04-24T05:42:19;10.98;;;6.90;;
62687;SDS011;48752;51.056;17.056;2023-04-24T05:44:45;8.35;;;6.97;;
62687;SDS011;48752;51.056;17.056;2023-04-24T05:47:10;8.55;;;6.00;;
62687;SDS011;48752;51.056;17.056;2023-04-24T05:49:36;11.50;;;6.28;;
62687;SDS011;48752;51.056;17.056;2023-04-24T05:52:01;11.60;;;6.63;;
62687;SDS011;48752;51.056;17.056;2023-04-24T05:54:29;7.85;;;6.00;;
62687;SDS011;48752;51.056;17.056;2023-04-24T05:56:54;10.55;;;6.43;;
62687;SDS011;48752;51.056;17.056;2023-04-24T05:59:20;11.40;;;6.30;;
62687;SDS011;48752;51.056;17.056;2023-04-24T06:01:46;9.05;;;6.35;;
62687;SDS011;48752;51.056;17.056;2023-04-24T06:04:11;11.23;;;6.28;;
62687;SDS011;48752;51.056;17.056;2023-04-24T06:06:38;9.00;;;5.90;;
62687;SDS011;48752;51.056;17.056;2023-04-24T06:09:03;8.50;;;5.60;;
62687;SDS011;48752;51.056;17.056;2023-04-24T06:11:29;11.75;;;6.47;;
62687;SDS011;48752;51.056;17.056;2023-04-24T06:13:55;8.88;;;5.40;;
62687;SDS011;48752;51.056;17.056;2023-04-24T06:16:20;9.75;;;6.13;;
62687;SDS011;48752;51.056;17.056;2023-04-24T06:18:46;9.00;;;5.82;;
62687;SDS011;48752;51.056;17.056;2023-04-24T06:21:12;9.68;;;6.15;;
62687;SDS011;48752;51.056;17.056;2023-04-24T06:23:37;10.13;;;6.13;;
62687;SDS011;48752;51.056;17.056;2023-04-24T06:26:03;7.10;;;5.72;;
62687;SDS011;48752;51.056;17.056;2023-04-24T06:28:28;8.90;;;6.00;;
62687;SDS011;48752;51.056;17.056;2023-04-24T06:30:53;9.32;;;5.72;;
62687;SDS011;48752;51.056;17.056;2023-04-24T06:33:19;10.40;;;5.88;;
62687;SDS011;48752;51.056;17.056;2023-04-24T06:35:44;6.47;;;5.53;;
62687;SDS011;48752;51.056;17.056;2023-04-24T06:38:10;7.07;;;5.22;;
62687;SDS011;48752;51.056;17.056;2023-04-24T06:40:35;9.75;;;5.88;;
62687;SDS011;48752;51.056;17.056;2023-04-24T06:43:01;8.25;;;5.72;;
62687;SDS011;48752;51.056;17.056;2023-04-24T06:45:28;12.13;;;6.40;;
62687;SDS011;48752;51.056;17.056;2023-04-24T06:47:54;12.45;;;6.55;;
62687;SDS011;48752;51.056;17.056;2023-04-24T06:50:19;9.93;;;5.57;;
62687;SDS011;48752;51.056;17.056;2023-04-24T06:52:45;8.98;;;5.57;;
62687;SDS011;48752;51.056;17.056;2023-04-24T06:55:10;11.98;;;5.80;;
62687;SDS011;48752;51.056;17.056;2023-04-24T06:57:36;7.28;;;5.82;;
62687;SDS011;48752;51.056;17.056;2023-04-24T07:00:01;8.82;;;5.82;;
62687;SDS011;48752;51.056;17.056;2023-04-24T07:02:28;7.53;;;6.00;;
62687;SDS011;48752;51.056;17.056;2023-04-24T07:04:53;11.77;;;6.25;;
62687;SDS011;48752;51.056;17.056;2023-04-24T07:07:19;12.48;;;6.10;;
62687;SDS011;48752;51.056;17.056;2023-04-24T07:09:44;10.95;;;6.35;;
62687;SDS011;48752;51.056;17.056;2023-04-24T07:12:11;11.30;;;6.70;;
62687;SDS011;48752;51.056;17.056;2023-04-24T07:14:37;8.82;;;7.07;;
62687;SDS011;48752;51.056;17.056;2023-04-24T07:17:03;7.53;;;5.50;;
62687;SDS011;48752;51.056;17.056;2023-04-24T07:19:29;9.48;;;5.93;;
62687;SDS011;48752;51.056;17.056;2023-04-24T07:21:54;6.88;;;5.32;;
62687;SDS011;48752;51.056;17.056;2023-04-24T07:24:20;8.10;;;5.70;;
62687;SDS011;48752;51.056;17.056;2023-04-24T07:26:45;7.05;;;4.45;;
62687;SDS011;48752;51.056;17.056;2023-04-24T07:29:11;8.60;;;5.00;;
62687;SDS011;48752;51.056;17.056;2023-04-24T07:31:37;6.85;;;5.10;;
62687;SDS011;48752;51.056;17.056;2023-04-24T07:34:02;8.80;;;5.35;;
62687;SDS011;48752;51.056;17.056;2023-04-24T07:36:28;7.20;;;5.50;;
62687;SDS011;48752;51.056;17.056;2023-04-24T07:38:53;7.32;;;4.80;;
62687;SDS011;48752;51.056;17.056;2023-04-24T07:41:19;5.35;;;4.82;;
62687;SDS011;48752;51.056;17.056;2023-04-24T07:43:45;9.20;;;4.90;;
62687;SDS011;48752;51.056;17.056;2023-04-24T07:46:11;7.53;;;4.78;;
62687;SDS011;48752;51.056;17.056;2023-04-24T07:48:36;5.82;;;5.03;;
62687;SDS011;48752;51.056;17.056;2023-04-24T07:51:02;9.23;;;5.22;;
62687;SDS011;48752;51.056;17.056;2023-04-24T07:53:27;7.13;;;4.97;;
62687;SDS011;48752;51.056;17.056;2023-04-24T07:55:54;8.57;;;5.07;;
62687;SDS011;48752;51.056;17.056;2023-04-24T07:58:20;6.70;;;5.18;;
62687;SDS011;48752;51.056;17.056;2023-04-24T08:00:46;8.80;;;4.63;;
62687;SDS011;48752;51.056;17.056;2023-04-24T08:03:11;8.48;;;5.60;;
62687;SDS011;48752;51.056;17.056;2023-04-24T08:05:37;7.40;;;5.60;;
62687;SDS011;48752;51.056;17.056;2023-04-24T08:08:03;8.15;;;5.05;;
62687;SDS011;48752;51.056;17.056;2023-04-24T08:10:28;9.32;;;6.72;;
62687;SDS011;48752;51.056;17.056;2023-04-24T08:12:54;8.32;;;6.45;;
62687;SDS011;48752;51.056;17.056;2023-04-24T08:15:20;6.55;;;5.93;;
62687;SDS011;48752;51.056;17.056;2023-04-24T08:17:45;7.95;;;5.88;;
62687;SDS011;48752;51.056;17.056;2023-04-24T08:20:11;9.82;;;6.32;;
62687;SDS011;48752;51.056;17.056;2023-04-24T08:22:41;7.85;;;5.63;;
62687;SDS011;48752;51.056;17.056;2023-04-24T08:25:07;11.43;;;5.82;;
62687;SDS011;48752;51.056;17.056;2023-04-24T08:27:33;6.88;;;5.65;;
62687;SDS011;48752;51.056;17.056;2023-04-24T08:29:58;8.55;;;6.05;;
62687;SDS011;48752;51.056;17.056;2023-04-24T08:32:25;9.68;;;5.95;;
62687;SDS011;48752;51.056;17.056;2023-04-24T08:34:53;13.25;;;6.97;;
62687;SDS011;48752;51.056;17.056;2023-04-24T08:37:21;9.05;;;6.88;;
62687;SDS011;48752;51.056;17.056;2023-04-24T08:39:47;9.07;;;7.07;;
62687;SDS011;48752;51.056;17.056;2023-04-24T08:42:12;9.70;;;7.10;;
62687;SDS011;48752;51.056;17.056;2023-04-24T08:44:38;9.38;;;7.30;;
62687;SDS011;48752;51.056;17.056;2023-04-24T08:47:03;10.15;;;6.85;;
62687;SDS011;48752;51.056;17.056;2023-04-24T08:49:30;14.77;;;7.38;;
62687;SDS011;48752;51.056;17.056;2023-04-24T08:51:56;9.48;;;6.65;;
62687;SDS011;48752;51.056;17.056;2023-04-24T08:54:21;9.25;;;6.13;;
62687;SDS011;48752;51.056;17.056;2023-04-24T08:56:47;8.25;;;6.72;;
62687;SDS011;48752;51.056;17.056;2023-04-24T08:59:14;15.52;;;7.05;;
62687;SDS011;48752;51.056;17.056;2023-04-24T09:01:40;17.27;;;7.28;;
62687;SDS011;48752;51.056;17.056;2023-04-24T09:04:06;10.13;;;7.13;;
62687;SDS011;48752;51.056;17.056;2023-04-24T09:06:34;7.13;;;5.80;;
62687;SDS011;48752;51.056;17.056;2023-04-24T09:09:00;10.25;;;5.90;;
62687;SDS011;48752;51.056;17.056;2023-04-24T09:11:27;7.07;;;5.55;;
62687;SDS011;48752;51.056;17.056;2023-04-24T09:13:56;9.25;;;6.50;;
62687;SDS011;48752;51.056;17.056;2023-04-24T09:16:21;8.57;;;5.75;;
62687;SDS011;48752;51.056;17.056;2023-04-24T09:18:49;7.82;;;6.10;;
62687;SDS011;48752;51.056;17.056;2023-04-24T09:21:14;7.47;;;5.82;;
62687;SDS011;48752;51.056;17.056;2023-04-24T09:23:40;9.35;;;6.50;;
62687;SDS011;48752;51.056;17.056;2023-04-24T09:26:06;14.60;;;6.80;;
62687;SDS011;48752;51.056;17.056;2023-04-24T09:28:32;7.07;;;6.32;;
62687;SDS011;48752;51.056;17.056;2023-04-24T09:31:12;11.90;;;6.82;;
62687;SDS011;48752;51.056;17.056;2023-04-24T09:33:40;9.52;;;6.47;;
62687;SDS011;48752;51.056;17.056;2023-04-24T09:36:18;7.28;;;6.57;;
62687;SDS011;48752;51.056;17.056;2023-04-24T09:38:44;7.88;;;6.35;;
62687;SDS011;48752;51.056;17.056;2023-04-24T09:41:13;6.97;;;5.90;;
62687;SDS011;48752;51.056;17.056;2023-04-24T09:43:38;8.85;;;6.60;;
62687;SDS011;48752;51.056;17.056;2023-04-24T09:46:07;11.40;;;7.20;;
62687;SDS011;48752;51.056;17.056;2023-04-24T09:48:36;8.77;;;7.05;;
62687;SDS011;48752;51.056;17.056;2023-04-24T09:51:04;8.05;;;6.85;;
62687;SDS011;48752;51.056;17.056;2023-04-24T09:53:32;8.30;;;7.32;;
62687;SDS011;48752;51.056;17.056;2023-04-24T09:56:10;8.10;;;6.63;;
62687;SDS011;48752;51.056;17.056;2023-04-24T09:58:38;7.70;;;6.28;;
62687;SDS011;48752;51.056;17.056;2023-04-24T10:01:05;10.02;;;6.20;;
62687;SDS011;48752;51.056;17.056;2023-04-24T10:03:31;10.30;;;6.95;;
62687;SDS011;48752;51.056;17.056;2023-04-24T10:05:58;8.85;;;6.93;;
62687;SDS011;48752;51.056;17.056;2023-04-24T10:08:24;6.65;;;6.05;;
62687;SDS011;48752;51.056;17.056;2023-04-24T10:10:50;7.90;;;6.80;;
62687;SDS011;48752;51.056;17.056;2023-04-24T10:13:15;10.57;;;7.60;;
62687;SDS011;48752;51.056;17.056;2023-04-24T10:15:41;7.43;;;6.63;;
62687;SDS011;48752;51.056;17.056;2023-04-24T10:18:10;7.95;;;6.55;;
62687;SDS011;48752;51.056;17.056;2023-04-24T10:20:36;10.98;;;6.60;;
62687;SDS011;48752;51.056;17.056;2023-04-24T10:23:03;7.35;;;6.07;;
62687;SDS011;48752;51.056;17.056;2023-04-24T10:25:30;7.78;;;6.22;;
62687;SDS011;48752;51.056;17.056;2023-04-24T10:27:57;11.02;;;7.18;;
62687;SDS011;48752;51.056;17.056;2023-04-24T10:30:25;9.48;;;6.47;;
62687;SDS011;48752;51.056;17.056;2023-04-24T10:33:00;7.95;;;6.38;;
62687;SDS011;48752;51.056;17.056;2023-04-24T10:35:27;6.25;;;5.45;;
62687;SDS011;48752;51.056;17.056;2023-04-24T10:38:05;7.65;;;6.85;;
62687;SDS011;48752;51.056;17.056;2023-04-24T10:40:33;7.55;;;5.65;;
62687;SDS011;48752;51.056;17.056;2023-04-24T10:43:06;8.93;;;6.57;;
62687;SDS011;48752;51.056;17.056;2023-04-24T10:45:34;9.77;;;6.10;;
62687;SDS011;48752;51.056;17.056;2023-04-24T10:48:09;7.97;;;5.97;;
62687;SDS011;48752;51.056;17.056;2023-04-24T10:50:51;12.85;;;6.20;;
62687;SDS011;48752;51.056;17.056;2023-04-24T10:53:17;8.02;;;5.97;;
62687;SDS011;48752;51.056;17.056;2023-04-24T10:58:13;7.60;;;6.20;;
62687;SDS011;48752;51.056;17.056;2023-04-24T11:00:43;8.85;;;6.70;;
62687;SDS011;48752;51.056;17.056;2023-04-24T11:03:32;6.63;;;5.90;;
62687;SDS011;48752;51.056;17.056;2023-04-24T11:08:32;8.63;;;6.90;;
62687;SDS011;48752;51.056;17.056;2023-04-24T11:10:59;7.75;;;5.85;;
62687;SDS011;48752;51.056;17.056;2023-04-24T11:13:31;7.55;;;5.75;;
62687;SDS011;48752;51.056;17.056;2023-04-24T11:16:25;11.07;;;6.50;;
62687;SDS011;48752;51.056;17.056;2023-04-24T11:27:16;7.80;;;6.15;;
62687;SDS011;48752;51.056;17.056;2023-04-24T11:29:48;26.15;;;8.43;;
62687;SDS011;48752;51.056;17.056;2023-04-24T11:32:18;26.67;;;8.38;;
62687;SDS011;48752;51.056;17.056;2023-04-24T11:34:47;7.95;;;6.57;;
62687;SDS011;48752;51.056;17.056;2023-04-24T11:37:16;10.13;;;6.07;;
62687;SDS011;48752;51.056;17.056;2023-04-24T11:39:42;7.35;;;6.15;;
62687;SDS011;48752;51.056;17.056;2023-04-24T11:42:08;7.82;;;6.18;;
62687;SDS011;48752;51.056;17.056;2023-04-24T11:44:34;9.88;;;6.53;;
62687;SDS011;48752;51.056;17.056;2023-04-24T11:47:02;9.68;;;6.20;;
62687;SDS011;48752;51.056;17.056;2023-04-24T11:49:29;7.60;;;6.30;;
62687;SDS011;48752;51.056;17.056;2023-04-24T11:51:55;7.90;;;5.93;;
62687;SDS011;48752;51.056;17.056;2023-04-24T11:54:20;6.72;;;5.57;;
62687;SDS011;48752;51.056;17.056;2023-04-24T11:56:46;11.38;;;5.90;;
62687;SDS011;48752;51.056;17.056;2023-04-24T11:59:12;8.25;;;6.53;;
62687;SDS011;48752;51.056;17.056;2023-04-24T12:01:47;11.27;;;6.80;;
62687;SDS011;48752;51.056;17.056;2023-04-24T12:04:14;8.82;;;6.47;;
62687;SDS011;48752;51.056;17.056;2023-04-24T12:07:00;9.73;;;6.65;;
62687;SDS011;48752;51.056;17.056;2023-04-24T12:09:26;9.35;;;5.85;;
62687;SDS011;48752;51.056;17.056;2023-04-24T12:11:52;7.07;;;4.68;;
62687;SDS011;48752;51.056;17.056;2023-04-24T12:14:18;7.20;;;5.22;;
62687;SDS011;48752;51.056;17.056;2023-04-24T12:16:47;6.25;;;5.15;;
62687;SDS011;48752;51.056;17.056;2023-04-24T12:19:17;7.03;;;6.20;;
62687;SDS011;48752;51.056;17.056;2023-04-24T12:21:43;9.03;;;5.63;;
62687;SDS011;48752;51.056;17.056;2023-04-24T12:24:09;12.70;;;6.78;;
62687;SDS011;48752;51.056;17.056;2023-04-24T12:26:34;5.90;;;5.35;;
62687;SDS011;48752;51.056;17.056;2023-04-24T12:29:01;9.77;;;7.10;;
62687;SDS011;48752;51.056;17.056;2023-04-24T12:31:26;6.85;;;6.15;;
62687;SDS011;48752;51.056;17.056;2023-04-24T12:33:54;8.05;;;5.55;;
62687;SDS011;48752;51.056;17.056;2023-04-24T12:36:21;8.43;;;6.00;;
62687;SDS011;48752;51.056;17.056;2023-04-24T12:38:46;6.28;;;5.68;;
62687;SDS011;48752;51.056;17.056;2023-04-24T12:41:18;7.88;;;5.40;;
62687;SDS011;48752;51.056;17.056;2023-04-24T12:43:53;9.90;;;6.50;;
62687;SDS011;48752;51.056;17.056;2023-04-24T12:46:20;9.30;;;5.82;;
62687;SDS011;48752;51.056;17.056;2023-04-24T12:48:45;6.55;;;5.45;;
62687;SDS011;48752;51.056;17.056;2023-04-24T12:51:11;5.30;;;4.80;;
62687;SDS011;48752;51.056;17.056;2023-04-24T12:53:36;9.55;;;5.50;;
62687;SDS011;48752;51.056;17.056;2023-04-24T12:56:01;7.82;;;5.60;;
62687;SDS011;48752;51.056;17.056;2023-04-24T12:58:27;8.70;;;6.18;;
62687;SDS011;48752;51.056;17.056;2023-04-24T13:00:52;5.80;;;5.20;;
62687;SDS011;48752;51.056;17.056;2023-04-24T13:03:18;8.30;;;5.70;;
62687;SDS011;48752;51.056;17.056;2023-04-24T13:05:43;9.10;;;5.72;;
62687;SDS011;48752;51.056;17.056;2023-04-24T13:08:09;8.65;;;6.40;;
62687;SDS011;48752;51.056;17.056;2023-04-24T13:10:35;11.15;;;5.35;;
62687;SDS011;48752;51.056;17.056;2023-04-24T13:13:00;6.70;;;5.38;;
62687;SDS011;48752;51.056;17.056;2023-04-24T13:15:26;7.88;;;4.93;;
62687;SDS011;48752;51.056;17.056;2023-04-24T13:17:51;7.15;;;4.55;;
62687;SDS011;48752;51.056;17.056;2023-04-24T13:20:17;5.38;;;3.75;;
62687;SDS011;48752;51.056;17.056;2023-04-24T13:22:43;5.45;;;3.38;;
62687;SDS011;48752;51.056;17.056;2023-04-24T13:25:08;3.17;;;2.50;;
62687;SDS011;48752;51.056;17.056;2023-04-24T13:27:35;5.72;;;3.42;;
62687;SDS011;48752;51.056;17.056;2023-04-24T13:30:00;3.47;;;2.60;;
62687;SDS011;48752;51.056;17.056;2023-04-24T13:32:26;3.20;;;2.10;;
62687;SDS011;48752;51.056;17.056;2023-04-24T13:34:52;2.30;;;2.10;;
62687;SDS011;48752;51.056;17.056;2023-04-24T13:37:18;3.28;;;2.05;;
62687;SDS011;48752;51.056;17.056;2023-04-24T13:39:43;6.15;;;2.38;;
62687;SDS011;48752;51.056;17.056;2023-04-24T13:42:08;3.38;;;2.20;;
62687;SDS011;48752;51.056;17.056;2023-04-24T13:44:34;5.32;;;2.70;;
62687;SDS011;48752;51.056;17.056;2023-04-24T13:47:03;6.80;;;2.83;;
62687;SDS011;48752;51.056;17.056;2023-04-24T13:49:28;3.83;;;2.40;;
62687;SDS011;48752;51.056;17.056;2023-04-24T13:51:54;3.67;;;2.03;;
62687;SDS011;48752;51.056;17.056;2023-04-24T13:54:20;3.80;;;2.10;;
62687;SDS011;48752;51.056;17.056;2023-04-24T13:56:45;4.07;;;2.00;;
62687;SDS011;48752;51.056;17.056;2023-04-24T13:59:12;6.68;;;2.30;;
62687;SDS011;48752;51.056;17.056;2023-04-24T14:01:37;4.82;;;2.28;;
62687;SDS011;48752;51.056;17.056;2023-04-24T14:04:03;3.10;;;1.60;;
62687;SDS011;48752;51.056;17.056;2023-04-24T14:06:28;4.00;;;2.28;;
62687;SDS011;48752;51.056;17.056;2023-04-24T14:08:54;2.55;;;1.63;;
62687;SDS011;48752;51.056;17.056;2023-04-24T14:11:19;3.33;;;1.45;;
62687;SDS011;48752;51.056;17.056;2023-04-24T14:13:45;7.68;;;1.48;;
62687;SDS011;48752;51.056;17.056;2023-04-24T14:16:10;3.25;;;1.90;;
62687;SDS011;48752;51.056;17.056;2023-04-24T14:18:36;6.85;;;2.08;;
62687;SDS011;48752;51.056;17.056;2023-04-24T14:21:05;1.70;;;1.58;;
62687;SDS011;48752;51.056;17.056;2023-04-24T14:23:30;7.03;;;1.77;;
62687;SDS011;48752;51.056;17.056;2023-04-24T14:25:56;5.22;;;1.98;;
62687;SDS011;48752;51.056;17.056;2023-04-24T14:28:22;2.78;;;1.63;;
62687;SDS011;48752;51.056;17.056;2023-04-24T14:30:47;4.15;;;2.03;;
62687;SDS011;48752;51.056;17.056;2023-04-24T14:33:13;7.63;;;2.90;;
62687;SDS011;48752;51.056;17.056;2023-04-24T14:35:42;3.78;;;2.05;;